createdAt,value
2022-12-01T00:00:22.741Z,102049.94
2022-12-01T00:02:50.579Z,102052.97
2022-12-01T00:05:18.205Z,102050.22
2022-12-01T00:07:45.730Z,102048.25
2022-12-01T00:10:28.339Z,102052.22
2022-12-01T00:12:58.039Z,102037.50
2022-12-01T00:15:26.885Z,102046.53
2022-12-01T00:17:54.397Z,102043.84
2022-12-01T00:20:21.900Z,102046.38
2022-12-01T00:22:49.801Z,102035.88
2022-12-01T00:25:18.159Z,102050.50
2022-12-01T00:27:48.428Z,102027.63
2022-12-01T00:30:17.721Z,102045.25
2022-12-01T00:32:45.553Z,102052.31
2022-12-01T00:35:13.410Z,102025.81
2022-12-01T00:37:41.012Z,102030.69
2022-12-01T00:40:09.130Z,102030.34
2022-12-01T00:42:36.716Z,102034.25
2022-12-01T00:45:04.380Z,102040.25
2022-12-01T00:47:33.171Z,102029.34
2022-12-01T00:50:00.656Z,102052.16
2022-12-01T00:52:28.278Z,102048.94
2022-12-01T00:54:55.732Z,102050.75
2022-12-01T00:57:23.193Z,102037.03
2022-12-01T00:59:50.900Z,102043.56
2022-12-01T01:02:18.737Z,102046.31
2022-12-01T01:04:47.692Z,102029.50
2022-12-01T01:07:15.131Z,102046.53
2022-12-01T01:09:42.645Z,102047.69
2022-12-01T01:12:10.120Z,102050.78
2022-12-01T01:14:37.728Z,102056.50
2022-12-01T01:17:05.290Z,102071.16
2022-12-01T01:19:32.776Z,102063.06
2022-12-01T01:22:01.649Z,102055.72
2022-12-01T01:24:29.181Z,102067.53
2022-12-01T01:26:56.677Z,102077.06
2022-12-01T01:29:24.133Z,102071.16
2022-12-01T01:31:51.676Z,102052.44
2022-12-01T01:34:19.219Z,102067.00
2022-12-01T01:36:46.752Z,102063.31
2022-12-01T01:39:15.600Z,102050.00
2022-12-01T01:41:43.228Z,102073.53
2022-12-01T01:44:29.443Z,102074.56
2022-12-01T01:46:56.981Z,102068.69
2022-12-01T01:49:24.504Z,102076.28
2022-12-01T01:51:52.606Z,102067.47
2022-12-01T01:54:22.183Z,102062.19
2022-12-01T01:56:49.780Z,102061.69
2022-12-01T01:59:18.580Z,102053.16
2022-12-01T02:01:46.245Z,102061.63
2022-12-01T02:04:13.806Z,102072.97
2022-12-01T02:06:41.326Z,102062.31
2022-12-01T02:09:10.807Z,102059.94
2022-12-01T02:11:51.876Z,102059.78
2022-12-01T02:14:25.049Z,102053.03
2022-12-01T02:16:54.307Z,102054.81
2022-12-01T02:19:39.521Z,102073.84
2022-12-01T02:22:10.334Z,102064.63
2022-12-01T02:24:49.731Z,102068.16
2022-12-01T02:27:20.588Z,102058.88
2022-12-01T02:30:01.681Z,102070.75
2022-12-01T02:32:31.745Z,102066.06
2022-12-01T02:35:00.180Z,102065.78
2022-12-01T02:37:29.951Z,102071.09
2022-12-01T02:39:59.087Z,102059.72
2022-12-01T02:42:42.600Z,102058.00
2022-12-01T02:45:11.388Z,102063.28
2022-12-01T02:47:40.276Z,102055.63
2022-12-01T02:50:08.484Z,102051.38
2022-12-01T02:52:35.963Z,102042.94
2022-12-01T02:55:04.164Z,102060.09
2022-12-01T02:57:31.685Z,102050.34
2022-12-01T02:59:59.275Z,102056.16
2022-12-01T03:02:28.726Z,102045.84
2022-12-01T03:04:59.797Z,102053.00
2022-12-01T03:07:33.206Z,102055.25
2022-12-01T03:10:03.268Z,102048.53
2022-12-01T03:12:31.887Z,102045.78
2022-12-01T03:15:02.115Z,102051.97
2022-12-01T03:17:30.129Z,102053.81
2022-12-01T03:19:59.523Z,102057.09
2022-12-01T03:22:27.221Z,102058.38
2022-12-01T03:24:54.975Z,102070.00
2022-12-01T03:27:24.025Z,102062.66
2022-12-01T03:29:51.998Z,102072.41
2022-12-01T03:32:20.455Z,102067.22
2022-12-01T03:34:49.791Z,102067.00
2022-12-01T03:37:19.817Z,102050.28
2022-12-01T03:39:47.626Z,102068.94
2022-12-01T03:42:16.689Z,102074.47
2022-12-01T03:44:44.643Z,102081.38
2022-12-01T03:47:13.288Z,102056.84
2022-12-01T03:49:40.879Z,102059.28
2022-12-01T03:52:10.747Z,102058.31
2022-12-01T03:54:44.996Z,102066.09
2022-12-01T03:57:12.847Z,102060.97
2022-12-01T03:59:40.368Z,102064.47
2022-12-01T04:02:07.964Z,102053.00
2022-12-01T04:04:35.486Z,102057.25
2022-12-01T04:07:03.204Z,102057.63
2022-12-01T04:09:30.729Z,102049.94
2022-12-01T04:12:16.947Z,102066.00
2022-12-01T04:14:44.448Z,102061.72
2022-12-01T04:17:11.960Z,102052.47
2022-12-01T04:19:39.670Z,102059.03
2022-12-01T04:22:07.111Z,102061.75
2022-12-01T04:24:34.636Z,102063.84
2022-12-01T04:27:03.443Z,102058.16
2022-12-01T04:29:30.871Z,102068.56
2022-12-01T04:31:58.339Z,102066.19
2022-12-01T04:34:25.771Z,102077.75
2022-12-01T04:36:53.314Z,102068.34
2022-12-01T04:39:20.776Z,102069.41
2022-12-01T04:41:48.305Z,102077.53
2022-12-01T04:44:17.658Z,102070.84
2022-12-01T04:46:45.235Z,102077.75
2022-12-01T04:49:12.769Z,102075.09
2022-12-01T04:51:40.196Z,102072.47
2022-12-01T04:54:07.684Z,102077.69
2022-12-01T04:56:35.202Z,102070.50
2022-12-01T04:59:02.764Z,102064.31
2022-12-01T05:01:31.679Z,102060.53
2022-12-01T05:03:59.229Z,102057.03
2022-12-01T05:06:27.227Z,102054.84
2022-12-01T05:08:55.789Z,102065.88
2022-12-01T05:11:23.407Z,102056.69
2022-12-01T05:13:50.985Z,102058.91
2022-12-01T05:16:19.705Z,102074.44
2022-12-01T05:18:50.507Z,102061.94
2022-12-01T05:21:17.188Z,102063.38
2022-12-01T05:23:45.555Z,102058.81
2022-12-01T05:26:13.001Z,102086.59
2022-12-01T05:28:41.089Z,102072.19
2022-12-01T05:31:08.602Z,102067.50
2022-12-01T05:33:36.127Z,102084.69
2022-12-01T05:36:05.201Z,102072.00
2022-12-01T05:38:32.791Z,102068.41
2022-12-01T05:41:00.264Z,102078.78
2022-12-01T05:43:29.538Z,102067.00
2022-12-01T05:45:57.658Z,102070.41
2022-12-01T05:48:25.313Z,102071.22
2022-12-01T05:50:52.855Z,102077.06
2022-12-01T05:53:21.719Z,102068.66
2022-12-01T05:55:52.335Z,102079.66
2022-12-01T05:58:19.840Z,102072.53
2022-12-01T06:00:47.351Z,102070.38
2022-12-01T06:03:14.823Z,102081.41
2022-12-01T06:05:42.305Z,102082.44
2022-12-01T06:08:09.808Z,102077.50
2022-12-01T06:10:38.625Z,102075.75
2022-12-01T06:13:06.086Z,102065.16
2022-12-01T06:15:33.540Z,102081.78
2022-12-01T06:18:00.972Z,102080.88
2022-12-01T06:20:28.503Z,102081.22
2022-12-01T06:22:56.027Z,102070.97
2022-12-01T06:25:23.671Z,102076.66
2022-12-01T06:27:52.507Z,102074.78
2022-12-01T06:30:20.036Z,102092.44
2022-12-01T06:32:47.559Z,102096.53
2022-12-01T06:35:15.139Z,102093.22
2022-12-01T06:37:42.573Z,102088.59
2022-12-01T06:40:10.766Z,102085.00
2022-12-01T06:42:38.300Z,102087.56
2022-12-01T06:45:07.756Z,102091.06
2022-12-01T06:47:35.273Z,102091.19
2022-12-01T06:50:02.804Z,102082.38
2022-12-01T06:52:30.281Z,102091.84
2022-12-01T06:54:57.749Z,102099.09
2022-12-01T06:57:25.388Z,102093.19
2022-12-01T06:59:53.344Z,102089.84
2022-12-01T07:02:22.825Z,102103.41
2022-12-01T07:04:50.337Z,102090.00
2022-12-01T07:07:17.796Z,102106.09
2022-12-01T07:09:45.305Z,102105.09
2022-12-01T07:12:12.839Z,102106.88
2022-12-01T07:14:42.366Z,102122.09
2022-12-01T07:17:10.249Z,102104.28
2022-12-01T07:19:39.188Z,102110.34
2022-12-01T07:22:06.620Z,102111.19
2022-12-01T07:24:34.130Z,102112.34
2022-12-01T07:27:01.637Z,102125.63
2022-12-01T07:29:29.125Z,102121.53
2022-12-01T07:31:56.684Z,102127.94
2022-12-01T07:34:24.192Z,102117.97
2022-12-01T07:36:53.075Z,102121.59
2022-12-01T07:39:20.551Z,102109.28
2022-12-01T07:41:48.052Z,102126.75
2022-12-01T07:44:15.559Z,102124.00
2022-12-01T07:46:43.148Z,102133.28
2022-12-01T07:49:14.771Z,102136.38
2022-12-01T07:51:42.322Z,102124.97
2022-12-01T07:54:14.221Z,102124.06
2022-12-01T07:56:41.936Z,102141.13
2022-12-01T07:59:09.496Z,102127.59
2022-12-01T08:01:41.543Z,102142.59
2022-12-01T08:04:11.813Z,102137.38
2022-12-01T08:06:39.326Z,102123.00
2022-12-01T08:09:06.910Z,102131.25
2022-12-01T08:11:35.996Z,102121.66
2022-12-01T08:14:03.508Z,102138.94
2022-12-01T08:16:31.367Z,102146.25
2022-12-01T08:18:58.811Z,102129.66
2022-12-01T08:21:26.442Z,102143.09
2022-12-01T08:23:54.397Z,102143.34
2022-12-01T08:26:22.261Z,102144.41
2022-12-01T08:28:51.202Z,102157.91
2022-12-01T08:31:19.854Z,102152.53
2022-12-01T08:33:47.550Z,102156.44
2022-12-01T08:36:15.308Z,102170.50
2022-12-01T08:38:43.832Z,102155.25
2022-12-01T08:41:11.663Z,102151.81
2022-12-01T08:46:29.364Z,102183.34
2022-12-01T08:48:57.534Z,102159.75
2022-12-01T08:51:25.473Z,102162.25
2022-12-01T08:53:53.031Z,102165.28
2022-12-01T08:56:21.255Z,102150.47
2022-12-01T08:58:48.854Z,102156.28
2022-12-01T09:01:16.785Z,102162.38
2022-12-01T09:03:45.761Z,102152.56
2022-12-01T09:06:13.858Z,102158.41
2022-12-01T09:08:41.479Z,102172.75
2022-12-01T09:11:10.655Z,102150.00
2022-12-01T09:13:39.528Z,102163.66
2022-12-01T09:16:07.871Z,102163.91
2022-12-01T09:18:35.411Z,102162.25
2022-12-01T09:21:11.725Z,102168.75
2022-12-01T09:23:39.653Z,102164.53
2022-12-01T09:26:10.901Z,102156.22
2022-12-01T09:28:40.959Z,102158.47
2022-12-01T09:31:09.016Z,102153.09
2022-12-01T09:33:36.550Z,102165.75
2022-12-01T09:36:04.608Z,102153.63
2022-12-01T09:38:33.955Z,102152.25
2022-12-01T09:41:01.913Z,102162.63
2022-12-01T09:43:30.388Z,102143.94
2022-12-01T09:45:59.690Z,102154.91
2022-12-01T09:48:27.922Z,102151.75
2022-12-01T09:50:55.832Z,102150.13
2022-12-01T09:53:23.812Z,102168.41
2022-12-01T09:55:52.629Z,102162.97
2022-12-01T09:58:21.139Z,102158.00
2022-12-01T10:00:49.466Z,102164.50
2022-12-01T10:03:18.836Z,102145.47
2022-12-01T10:06:25.053Z,102131.50
2022-12-01T10:08:38.700Z,102131.25
2022-12-01T10:11:09.964Z,102133.88
2022-12-01T10:13:37.592Z,102129.53
2022-12-01T10:16:07.216Z,102142.31
2022-12-01T10:18:37.128Z,102132.16
2022-12-01T10:21:06.620Z,102131.72
2022-12-01T10:23:49.034Z,102134.75
2022-12-01T10:26:19.101Z,102139.09
2022-12-01T10:29:01.147Z,102139.41
2022-12-01T10:31:32.063Z,102163.63
2022-12-01T10:34:00.850Z,102139.41
2022-12-01T10:36:28.381Z,102134.66
2022-12-01T10:38:55.912Z,102152.00
2022-12-01T10:41:25.085Z,102151.09
2022-12-01T10:43:53.312Z,102123.97
2022-12-01T10:46:23.193Z,102131.06
2022-12-01T10:48:55.967Z,102128.31
2022-12-01T10:51:23.668Z,102135.28
2022-12-01T10:53:51.141Z,102131.94
2022-12-01T10:56:19.415Z,102152.97
2022-12-01T10:58:48.955Z,102134.59
2022-12-01T11:01:17.356Z,102148.03
2022-12-01T11:03:44.934Z,102135.25
2022-12-01T11:06:12.444Z,102126.06
2022-12-01T11:08:41.566Z,102128.50
2022-12-01T11:11:17.408Z,102120.69
2022-12-01T11:13:44.893Z,102130.78
2022-12-01T11:16:32.609Z,102139.22
2022-12-01T11:19:08.010Z,102132.84
2022-12-01T11:21:35.573Z,102116.91
2022-12-01T11:24:03.086Z,102127.16
2022-12-01T11:26:30.824Z,102119.53
2022-12-01T11:28:58.931Z,102127.38
2022-12-01T11:31:38.022Z,102135.56
2022-12-01T11:34:05.684Z,102113.22
2022-12-01T11:36:44.997Z,102115.81
2022-12-01T11:39:19.863Z,102110.50
2022-12-01T11:41:47.333Z,102097.16
2022-12-01T11:44:43.027Z,102107.28
2022-12-01T11:47:23.131Z,102100.88
2022-12-01T11:49:53.397Z,102111.66
2022-12-01T11:52:27.325Z,102101.81
2022-12-01T11:54:59.031Z,102107.84
2022-12-01T11:58:12.621Z,102102.28
2022-12-01T12:00:15.065Z,102093.81
2022-12-01T12:02:46.191Z,102101.47
2022-12-01T12:05:24.414Z,102107.44
2022-12-01T12:07:55.369Z,102101.81
2022-12-01T12:10:25.959Z,102079.22
2022-12-01T12:12:57.711Z,102066.66
2022-12-01T12:15:27.069Z,102090.47
2022-12-01T12:18:00.282Z,102079.75
2022-12-01T12:20:35.615Z,102077.38
2022-12-01T12:23:10.427Z,102091.88
2022-12-01T12:25:40.960Z,102096.06
2022-12-01T12:28:12.560Z,102066.66
2022-12-01T12:30:42.585Z,102063.47
2022-12-01T12:33:16.067Z,102076.94
2022-12-01T12:35:45.439Z,102074.13
2022-12-01T12:38:17.455Z,102088.56
2022-12-01T12:40:47.005Z,102083.00
2022-12-01T12:43:25.020Z,102064.28
2022-12-01T12:45:55.293Z,102067.31
2022-12-01T12:48:28.240Z,102070.53
2022-12-01T12:50:57.139Z,102072.75
2022-12-01T12:53:25.546Z,102060.06
2022-12-01T12:55:57.587Z,102071.75
2022-12-01T12:58:25.478Z,102063.56
2022-12-01T13:00:53.703Z,102057.34
2022-12-01T13:03:23.190Z,102066.78
2022-12-01T13:05:53.753Z,102059.94
2022-12-01T13:08:21.741Z,102065.28
2022-12-01T13:10:49.915Z,102043.59
2022-12-01T13:21:00.086Z,102044.88
2022-12-01T13:23:26.195Z,102059.84
2022-12-01T13:25:54.940Z,102054.06
2022-12-01T13:28:23.791Z,102056.38
2022-12-01T13:31:01.353Z,102052.47
2022-12-01T13:33:28.928Z,102054.78
2022-12-01T13:36:22.528Z,102067.59
2022-12-01T13:38:45.212Z,102050.59
2022-12-01T13:41:13.614Z,102060.44
2022-12-01T13:43:47.630Z,102039.47
2022-12-01T13:46:20.532Z,102047.19
2022-12-01T13:48:51.610Z,102051.44
2022-12-01T13:51:19.186Z,102047.09
2022-12-01T13:54:02.580Z,102051.59
2022-12-01T13:56:39.708Z,102030.94
2022-12-01T13:59:23.387Z,102041.72
2022-12-01T14:01:50.955Z,102039.22
2022-12-01T14:04:28.752Z,102045.75
2022-12-01T14:07:14.687Z,102047.94
2022-12-01T14:09:43.998Z,102053.41
2022-12-01T14:12:16.383Z,102046.81
2022-12-01T14:14:44.777Z,102048.78
2022-12-01T14:17:21.417Z,102055.81
2022-12-01T14:19:52.053Z,102056.09
2022-12-01T14:22:31.747Z,102046.59
2022-12-01T14:25:00.702Z,102053.91
2022-12-01T14:27:34.623Z,102054.59
2022-12-01T14:30:17.077Z,102041.78
2022-12-01T14:32:44.612Z,102045.66
2022-12-01T14:35:12.996Z,102059.78
2022-12-01T14:37:49.873Z,102049.03
2022-12-01T14:40:26.360Z,102047.44
2022-12-01T14:43:12.598Z,102055.81
2022-12-01T14:45:41.059Z,102066.78
2022-12-01T14:48:10.682Z,102058.06
2022-12-01T14:50:43.519Z,102066.13
2022-12-01T14:53:16.852Z,102075.28
2022-12-01T14:55:47.250Z,102060.78
2022-12-01T14:58:15.804Z,102091.06
2022-12-01T15:00:50.039Z,102075.09
2022-12-01T15:03:17.525Z,102076.09
2022-12-01T15:05:45.092Z,102064.34
2022-12-01T15:08:40.465Z,102075.94
2022-12-01T15:11:10.960Z,102072.03
2022-12-01T15:13:45.126Z,102075.91
2022-12-01T15:16:16.081Z,102061.88
2022-12-01T15:18:43.669Z,102063.31
2022-12-01T15:21:11.863Z,102061.63
2022-12-01T15:23:52.794Z,102065.91
2022-12-01T15:26:21.997Z,102067.84
2022-12-01T15:28:49.459Z,102055.47
2022-12-01T15:31:16.970Z,102055.94
2022-12-01T15:33:46.726Z,102057.22
2022-12-01T15:36:14.258Z,102063.72
2022-12-01T15:38:42.161Z,102037.94
2022-12-01T15:41:28.936Z,102049.59
2022-12-01T15:43:59.092Z,102049.38
2022-12-01T15:46:29.868Z,102041.28
2022-12-01T15:49:09.675Z,102054.47
2022-12-01T15:51:37.152Z,102040.72
2022-12-01T15:54:04.707Z,102047.75
2022-12-01T15:56:32.913Z,102050.44
2022-12-01T15:59:03.148Z,102050.81
2022-12-01T16:01:30.942Z,102044.84
2022-12-01T16:03:59.459Z,102037.50
2022-12-01T16:06:27.703Z,102048.44
2022-12-01T16:08:57.217Z,102054.03
2022-12-01T16:11:24.788Z,102055.69
2022-12-01T16:13:58.201Z,102059.16
2022-12-01T16:16:31.411Z,102052.41
2022-12-01T16:19:00.110Z,102061.31
2022-12-01T16:21:27.623Z,102067.91
2022-12-01T16:24:01.934Z,102066.03
2022-12-01T16:26:29.844Z,102055.69
2022-12-01T16:28:57.402Z,102056.28
2022-12-01T16:31:25.106Z,102068.53
2022-12-01T16:34:06.558Z,102054.34
2022-12-01T16:36:41.595Z,102053.38
2022-12-01T16:39:09.267Z,102081.25
2022-12-01T16:41:38.776Z,102059.59
2022-12-01T16:44:27.596Z,102067.22
2022-12-01T16:46:53.831Z,102057.03
2022-12-01T16:49:22.695Z,102062.50
2022-12-01T16:51:56.164Z,102065.91
2022-12-01T16:54:24.508Z,102067.69
2022-12-01T16:56:52.048Z,102070.38
2022-12-01T16:59:20.062Z,102068.72
2022-12-01T17:01:47.657Z,102075.97
2022-12-01T17:04:15.191Z,102079.88
2022-12-01T17:06:44.034Z,102056.97
2022-12-01T17:09:11.536Z,102064.03
2022-12-01T17:11:39.092Z,102078.28
2022-12-01T17:14:06.601Z,102073.19
2022-12-01T17:16:34.197Z,102077.06
2022-12-01T17:19:01.728Z,102060.63
2022-12-01T17:21:29.231Z,102062.09
2022-12-01T17:23:58.086Z,102053.97
2022-12-01T17:26:25.640Z,102061.75
2022-12-01T17:28:54.206Z,102064.06
2022-12-01T17:31:22.269Z,102049.97
2022-12-01T17:33:50.444Z,102066.03
2022-12-01T17:36:18.124Z,102075.22
2022-12-01T17:38:46.410Z,102074.34
2022-12-01T17:41:15.996Z,102080.28
2022-12-01T17:43:43.652Z,102074.13
2022-12-01T17:46:11.674Z,102066.13
2022-12-01T17:48:39.644Z,102078.88
2022-12-01T17:51:08.680Z,102065.28
2022-12-01T17:53:36.252Z,102078.59
2022-12-01T17:56:03.903Z,102073.47
2022-12-01T17:58:32.793Z,102064.00
2022-12-01T18:01:00.335Z,102079.31
2022-12-01T18:03:27.838Z,102060.13
2022-12-01T18:05:55.999Z,102074.09
2022-12-01T18:08:23.558Z,102065.22
2022-12-01T18:10:51.444Z,102071.84
2022-12-01T18:13:21.300Z,102064.59
2022-12-01T18:15:50.459Z,102059.78
2022-12-01T18:18:18.005Z,102074.44
2022-12-01T18:20:45.758Z,102066.25
2022-12-01T18:23:13.784Z,102074.63
2022-12-01T18:25:41.425Z,102071.31
2022-12-01T18:28:10.982Z,102070.28
2022-12-01T18:30:38.903Z,102068.16
2022-12-01T18:33:10.986Z,102061.31
2022-12-01T18:35:43.364Z,102066.47
2022-12-01T18:38:10.947Z,102075.47
2022-12-01T18:40:38.627Z,102075.31
2022-12-01T18:43:06.180Z,102075.13
2022-12-01T18:45:33.643Z,102078.88
2022-12-01T18:48:01.149Z,102075.38
2022-12-01T18:50:30.046Z,102070.63
2022-12-01T18:52:57.581Z,102074.00
2022-12-01T18:55:25.080Z,102066.59
2022-12-01T18:57:52.620Z,102081.56
2022-12-01T19:00:20.468Z,102070.16
2022-12-01T19:02:47.998Z,102074.22
2022-12-01T19:05:15.561Z,102070.94
2022-12-01T19:07:44.504Z,102074.44
2022-12-01T19:10:12.438Z,102070.03
2022-12-01T19:12:41.324Z,102070.88
2022-12-01T19:15:09.514Z,102084.19
2022-12-01T19:17:37.361Z,102077.31
2022-12-01T19:20:05.388Z,102062.31
2022-12-01T19:22:33.051Z,102078.78
2022-12-01T19:25:01.940Z,102086.94
2022-12-01T19:27:30.412Z,102069.34
2022-12-01T19:29:57.967Z,102069.19
2022-12-01T19:32:25.794Z,102073.81
2022-12-01T19:34:53.323Z,102071.75
2022-12-01T19:37:21.044Z,102086.03
2022-12-01T19:39:48.504Z,102079.47
2022-12-01T19:42:17.405Z,102086.13
2022-12-01T19:44:44.902Z,102085.75
2022-12-01T19:47:12.445Z,102075.47
2022-12-01T19:49:39.895Z,102078.97
2022-12-01T19:52:07.402Z,102069.25
2022-12-01T19:54:35.346Z,102083.69
2022-12-01T19:57:02.865Z,102065.19
2022-12-01T19:59:31.737Z,102064.28
2022-12-01T20:01:59.365Z,102084.44
2022-12-01T20:04:26.899Z,102077.81
2022-12-01T20:06:54.395Z,102067.50
2022-12-01T20:09:21.869Z,102082.06
2022-12-01T20:11:49.348Z,102082.75
2022-12-01T20:14:16.912Z,102083.44
2022-12-01T20:16:45.853Z,102087.75
2022-12-01T20:19:13.367Z,102081.22
2022-12-01T20:21:43.120Z,102072.75
2022-12-01T20:24:11.921Z,102071.84
2022-12-01T20:26:40.264Z,102089.66
2022-12-01T20:29:08.844Z,102082.88
2022-12-01T20:31:36.859Z,102090.50
2022-12-01T20:34:07.119Z,102083.13
2022-12-01T20:36:34.742Z,102071.00
2022-12-01T20:39:02.256Z,102085.94
2022-12-01T20:41:29.733Z,102082.19
2022-12-01T20:43:58.509Z,102090.00
2022-12-01T20:46:28.718Z,102082.91
2022-12-01T20:48:56.338Z,102066.91
2022-12-01T20:51:25.174Z,102090.69
2022-12-01T20:54:19.834Z,102075.13
2022-12-01T20:56:40.163Z,102078.69
2022-12-01T20:59:07.685Z,102080.81
2022-12-01T21:01:35.514Z,102063.38
2022-12-01T21:04:03.099Z,102066.53
2022-12-01T21:06:32.011Z,102065.78
2022-12-01T21:08:59.567Z,102068.94
2022-12-01T21:11:42.192Z,102063.03
2022-12-01T21:14:10.752Z,102061.44
2022-12-01T21:16:38.320Z,102049.28
2022-12-01T21:19:11.257Z,102042.66
2022-12-01T21:21:41.031Z,102048.78
2022-12-01T21:24:13.507Z,102055.59
2022-12-01T21:26:42.068Z,102054.28
2022-12-01T21:29:14.730Z,102068.72
2022-12-01T21:31:42.225Z,102068.47
2022-12-01T21:34:10.165Z,102055.63
2022-12-01T21:36:37.680Z,102060.59
2022-12-01T21:39:21.405Z,102054.34
2022-12-01T21:41:49.448Z,102040.06
2022-12-01T21:44:17.412Z,102041.44
2022-12-01T21:46:44.975Z,102031.63
2022-12-01T21:49:16.978Z,102044.91
2022-12-01T21:51:44.525Z,102054.91
2022-12-01T21:54:15.019Z,102029.13
2022-12-01T21:56:42.633Z,102044.69
2022-12-01T21:59:15.209Z,102060.31
2022-12-01T22:01:42.854Z,102047.50
2022-12-01T22:04:12.364Z,102038.13
2022-12-01T22:06:40.346Z,102042.34
2022-12-01T22:09:14.372Z,102027.84
2022-12-01T22:11:42.144Z,102019.59
2022-12-01T22:14:12.174Z,102037.84
2022-12-01T22:16:42.281Z,102026.84
2022-12-01T22:19:18.203Z,102034.78
2022-12-01T22:21:46.758Z,102021.34
2022-12-01T22:24:25.628Z,102021.97
2022-12-01T22:26:54.709Z,102027.16
2022-12-01T22:29:24.607Z,102028.00
2022-12-01T22:31:52.075Z,102029.28
2022-12-01T22:34:19.532Z,102021.47
2022-12-01T22:36:47.037Z,102031.56
2022-12-01T22:39:23.635Z,102043.25
2022-12-01T22:41:52.504Z,102023.84
2022-12-01T22:44:20.137Z,102025.31
2022-12-01T22:46:47.728Z,102024.22
2022-12-01T22:49:19.568Z,102023.75
2022-12-01T22:51:47.889Z,102032.28
2022-12-01T22:54:33.267Z,102020.97
2022-12-01T22:57:12.239Z,102022.84
2022-12-01T22:59:40.467Z,102032.41
2022-12-01T23:02:19.304Z,102029.44
2022-12-01T23:04:48.447Z,102005.78
2022-12-01T23:07:24.142Z,102011.78
2022-12-01T23:09:51.610Z,102029.13
2022-12-01T23:12:26.047Z,102017.25
2022-12-01T23:14:56.886Z,102030.97
2022-12-01T23:17:25.903Z,102029.84
2022-12-01T23:19:54.022Z,102031.44
2022-12-01T23:22:21.477Z,102032.78
2022-12-01T23:24:49.375Z,102010.50
2022-12-01T23:27:17.214Z,102025.44
2022-12-01T23:29:46.050Z,102020.22
2022-12-01T23:32:13.567Z,102004.19
2022-12-01T23:34:41.120Z,102008.31
2022-12-01T23:37:12.892Z,102005.91
2022-12-01T23:39:40.362Z,101990.47
2022-12-01T23:42:09.771Z,101994.56
2022-12-01T23:44:38.589Z,101990.06
2022-12-01T23:47:09.745Z,101982.38
2022-12-01T23:49:37.187Z,101983.03
2022-12-01T23:52:04.897Z,101984.53
2022-12-01T23:54:32.918Z,101982.94
2022-12-01T23:57:01.955Z,101961.00
2022-12-01T23:59:29.403Z,101982.66
